London Airport
CYXU : now visible

Airfield :











YOU CAN JOIN US ON...

 
LOGIN :

Register | Disclaimer

   EN    FR    IT 

 









Legend :    VFR   Marginal VFR   IFR   Intensive IFR   Very Intensive IFR
Visi :
Ceiling :
>= 8 km
>= 3000ft
5 to 8 km
1000 to 3000 ft
1500m to 5 km
500 to 1000 ft
800 to 1500m
200 to 500 ft
< 800m
< 200 ft
Symbols :   Thunderstorms  Fog  Heavy snow  Heavy precipitations  Wind > 20 kt






- Airport Elevation : 912 ft
- IATA code : YXU


CYXU - London

CURRENT METAR :
  • 122300Z 31009KT 3SM -SHSN FEW007 BKN023TCU M07/M10 A3024 RMK CF2TCU5 SLP259

EXPIRED METARs :
  • 122216Z VRB02KT 1SM R15/P6000FT/U -SHSN BKN005 OVC021TCU M07/M09 A3022 RMK SN3CF2TCU3 VIS VRB 3/4-11/2 SLP254
  • 122200Z 03004KT 7SM SCT010 BKN038TCU M08/M09 A3022 RMK CF3TCU3 VIS E-S 3 SLP253
  • 122115Z VRB02KT 3SM -SHSN FEW005 SCT030TCU M07/M09 A3021 RMK CF2TCU2 SLP250
  • 122100Z 31004KT 280V340 1SM R15/P6000FT/U -SHSN BKN007 OVC018TCU M07/M09 A3021 RMK SN4CF2TCU2 VIS VRB 3/4-11/2 /S02/ SLP251
  • 122041Z 31004KT 280V350 1SM R15/5000VP6000FT/U -SHSN BKN011 OVC023TCU M07/M09 A3021 RMK SN4CF2TCU2 VIS VRB 3/4-11/2 SLP250

TAF AMD TAF CYXU
Valid from the 12 at 20:00 until the 13 at 18:00 UTC


122059Z 1220/1318 32008KT 1SM -SHSN BKN007 OVC015
TEMPO 1220/1224 5SM -SN BKN030
PROB30 1220/1223 1/2SM SHSN VV005
FM130000 29008KT P6SM BKN030
TEMPO 1300/1303 4SM -SN BKN020
FM130800 26007KT P6SM FEW020
FM131500 24008KT P6SM BKN160
FM131700 22008KT P6SM OVC100 RMK NXT FCST BY 130000Z



MET'MAP, your aeronautical weather chart ! - Copyright ORBIFLY December 2007 - Disclaimer

ORBIFLY MET'MAP TEAM :

Programming & Development : Alexandra Zaïnal
Concept & Development : Baudouin d'Aumeries
Co-Development & Prog : Marc-Olivier Méhu
Technical & hardware support : Manuel Goepfert

Contact : metmap@orbifly.com




SOURCES & CREDITS :

   NOAA       Earth
Advisory